sensor_id;sensor_type;location;lat;lon;timestamp;temperature;humidity
21298;DHT22;10808;48.010;11.326;2023-05-19T00:01:42;11.20;99.90
21298;DHT22;10808;48.010;11.326;2023-05-19T00:04:13;11.10;99.90
21298;DHT22;10808;48.010;11.326;2023-05-19T00:06:40;11.10;99.90
21298;DHT22;10808;48.010;11.326;2023-05-19T00:09:08;11.00;99.90
21298;DHT22;10808;48.010;11.326;2023-05-19T00:11:36;11.00;99.90
21298;DHT22;10808;48.010;11.326;2023-05-19T00:14:04;11.00;99.90
21298;DHT22;10808;48.010;11.326;2023-05-19T00:16:31;10.90;99.90
21298;DHT22;10808;48.010;11.326;2023-05-19T00:18:59;10.90;99.90
21298;DHT22;10808;48.010;11.326;2023-05-19T00:21:25;10.80;99.90
21298;DHT22;10808;48.010;11.326;2023-05-19T00:23:52;10.80;99.90
21298;DHT22;10808;48.010;11.326;2023-05-19T00:26:19;10.70;99.90
21298;DHT22;10808;48.010;11.326;2023-05-19T00:28:48;10.70;99.90
21298;DHT22;10808;48.010;11.326;2023-05-19T00:31:15;10.70;99.90
21298;DHT22;10808;48.010;11.326;2023-05-19T00:33:41;10.80;99.90
21298;DHT22;10808;48.010;11.326;2023-05-19T00:36:07;10.80;99.90
21298;DHT22;10808;48.010;11.326;2023-05-19T00:38:35;10.80;99.90
21298;DHT22;10808;48.010;11.326;2023-05-19T00:41:03;10.80;99.90
21298;DHT22;10808;48.010;11.326;2023-05-19T00:43:29;10.80;99.90
21298;DHT22;10808;48.010;11.326;2023-05-19T00:45:56;10.80;99.90
21298;DHT22;10808;48.010;11.326;2023-05-19T00:48:24;10.80;99.90
21298;DHT22;10808;48.010;11.326;2023-05-19T00:50:51;10.80;99.90
21298;DHT22;10808;48.010;11.326;2023-05-19T00:53:18;10.80;99.90
21298;DHT22;10808;48.010;11.326;2023-05-19T00:55:44;10.80;99.90
21298;DHT22;10808;48.010;11.326;2023-05-19T00:58:11;10.80;99.90
21298;DHT22;10808;48.010;11.326;2023-05-19T01:00:38;10.80;99.90
21298;DHT22;10808;48.010;11.326;2023-05-19T01:03:05;10.70;99.90
21298;DHT22;10808;48.010;11.326;2023-05-19T01:05:39;10.70;99.90
21298;DHT22;10808;48.010;11.326;2023-05-19T01:08:07;10.60;99.90
21298;DHT22;10808;48.010;11.326;2023-05-19T01:10:33;10.70;99.90
21298;DHT22;10808;48.010;11.326;2023-05-19T01:13:01;10.70;99.90
21298;DHT22;10808;48.010;11.326;2023-05-19T01:15:28;10.70;99.90
21298;DHT22;10808;48.010;11.326;2023-05-19T01:20:33;10.70;99.90
21298;DHT22;10808;48.010;11.326;2023-05-19T01:26:13;10.70;99.90
21298;DHT22;10808;48.010;11.326;2023-05-19T01:31:32;10.70;99.90
21298;DHT22;10808;48.010;11.326;2023-05-19T01:33:59;10.70;99.90
21298;DHT22;10808;48.010;11.326;2023-05-19T01:36:26;10.80;99.90
21298;DHT22;10808;48.010;11.326;2023-05-19T01:38:55;10.70;99.90
21298;DHT22;10808;48.010;11.326;2023-05-19T01:41:21;10.70;99.90
21298;DHT22;10808;48.010;11.326;2023-05-19T01:43:48;10.70;99.90
21298;DHT22;10808;48.010;11.326;2023-05-19T01:46:14;10.70;99.90
21298;DHT22;10808;48.010;11.326;2023-05-19T01:48:42;10.70;99.90
21298;DHT22;10808;48.010;11.326;2023-05-19T01:51:09;10.60;99.90
21298;DHT22;10808;48.010;11.326;2023-05-19T01:53:35;10.60;99.90
21298;DHT22;10808;48.010;11.326;2023-05-19T01:56:01;10.60;99.90
21298;DHT22;10808;48.010;11.326;2023-05-19T02:03:47;10.60;99.90
21298;DHT22;10808;48.010;11.326;2023-05-19T02:06:31;10.60;99.90
21298;DHT22;10808;48.010;11.326;2023-05-19T02:09:12;10.60;99.90
21298;DHT22;10808;48.010;11.326;2023-05-19T02:11:58;10.60;99.90
21298;DHT22;10808;48.010;11.326;2023-05-19T02:14:38;10.60;99.90
21298;DHT22;10808;48.010;11.326;2023-05-19T02:17:04;10.60;99.90
21298;DHT22;10808;48.010;11.326;2023-05-19T02:19:33;10.70;99.90
21298;DHT22;10808;48.010;11.326;2023-05-19T02:22:00;10.70;99.90
21298;DHT22;10808;48.010;11.326;2023-05-19T02:24:26;10.70;99.90
21298;DHT22;10808;48.010;11.326;2023-05-19T02:26:52;10.70;99.90
21298;DHT22;10808;48.010;11.326;2023-05-19T02:29:19;10.70;99.90
21298;DHT22;10808;48.010;11.326;2023-05-19T02:31:46;10.70;99.90
21298;DHT22;10808;48.010;11.326;2023-05-19T02:34:12;10.70;99.90
21298;DHT22;10808;48.010;11.326;2023-05-19T02:36:40;10.70;99.90
21298;DHT22;10808;48.010;11.326;2023-05-19T02:39:11;10.70;99.90
21298;DHT22;10808;48.010;11.326;2023-05-19T02:41:37;10.60;99.90
21298;DHT22;10808;48.010;11.326;2023-05-19T02:44:04;10.60;99.90
21298;DHT22;10808;48.010;11.326;2023-05-19T02:46:30;10.60;99.90
21298;DHT22;10808;48.010;11.326;2023-05-19T02:48:56;10.60;99.90
21298;DHT22;10808;48.010;11.326;2023-05-19T02:51:22;10.50;99.90
21298;DHT22;10808;48.010;11.326;2023-05-19T02:53:48;10.50;99.90
21298;DHT22;10808;48.010;11.326;2023-05-19T02:56:14;10.50;99.90
21298;DHT22;10808;48.010;11.326;2023-05-19T02:58:40;10.50;99.90
21298;DHT22;10808;48.010;11.326;2023-05-19T03:01:08;10.50;99.90
21298;DHT22;10808;48.010;11.326;2023-05-19T03:03:35;10.50;99.90
21298;DHT22;10808;48.010;11.326;2023-05-19T03:06:01;10.50;99.90
21298;DHT22;10808;48.010;11.326;2023-05-19T03:08:27;10.50;99.90
21298;DHT22;10808;48.010;11.326;2023-05-19T03:10:53;10.50;99.90
21298;DHT22;10808;48.010;11.326;2023-05-19T03:13:19;10.40;99.90
21298;DHT22;10808;48.010;11.326;2023-05-19T03:15:45;10.40;99.90
21298;DHT22;10808;48.010;11.326;2023-05-19T03:18:12;10.50;99.90
21298;DHT22;10808;48.010;11.326;2023-05-19T03:20:38;10.40;99.90
21298;DHT22;10808;48.010;11.326;2023-05-19T03:23:04;10.50;99.90
21298;DHT22;10808;48.010;11.326;2023-05-19T03:25:31;10.40;99.90
21298;DHT22;10808;48.010;11.326;2023-05-19T03:27:57;10.40;99.90
21298;DHT22;10808;48.010;11.326;2023-05-19T03:30:25;10.40;99.90
21298;DHT22;10808;48.010;11.326;2023-05-19T03:32:51;10.40;99.90
21298;DHT22;10808;48.010;11.326;2023-05-19T03:35:17;10.40;99.90
21298;DHT22;10808;48.010;11.326;2023-05-19T03:37:43;10.50;99.90
21298;DHT22;10808;48.010;11.326;2023-05-19T03:40:10;10.40;99.90
21298;DHT22;10808;48.010;11.326;2023-05-19T03:42:36;10.40;99.90
21298;DHT22;10808;48.010;11.326;2023-05-19T03:45:02;10.40;99.90
21298;DHT22;10808;48.010;11.326;2023-05-19T03:47:28;10.30;99.90
21298;DHT22;10808;48.010;11.326;2023-05-19T03:49:56;10.30;99.90
21298;DHT22;10808;48.010;11.326;2023-05-19T03:52:22;10.30;99.90
21298;DHT22;10808;48.010;11.326;2023-05-19T03:54:48;10.30;99.90
21298;DHT22;10808;48.010;11.326;2023-05-19T03:57:14;10.30;99.90
21298;DHT22;10808;48.010;11.326;2023-05-19T03:59:40;10.30;99.90
21298;DHT22;10808;48.010;11.326;2023-05-19T04:02:06;10.30;99.90
21298;DHT22;10808;48.010;11.326;2023-05-19T04:04:32;10.40;99.90
21298;DHT22;10808;48.010;11.326;2023-05-19T04:06:58;10.40;99.90
21298;DHT22;10808;48.010;11.326;2023-05-19T04:09:24;10.40;99.90
21298;DHT22;10808;48.010;11.326;2023-05-19T04:11:51;10.40;99.90
21298;DHT22;10808;48.010;11.326;2023-05-19T04:14:17;10.40;99.90
21298;DHT22;10808;48.010;11.326;2023-05-19T04:16:44;10.40;99.90
21298;DHT22;10808;48.010;11.326;2023-05-19T04:19:10;10.40;99.90
21298;DHT22;10808;48.010;11.326;2023-05-19T04:21:36;10.40;99.90
21298;DHT22;10808;48.010;11.326;2023-05-19T04:24:03;10.40;99.90
21298;DHT22;10808;48.010;11.326;2023-05-19T04:26:31;10.40;99.90
21298;DHT22;10808;48.010;11.326;2023-05-19T04:28:59;10.40;99.90
21298;DHT22;10808;48.010;11.326;2023-05-19T04:31:26;10.40;99.90
21298;DHT22;10808;48.010;11.326;2023-05-19T04:33:53;10.40;99.90
21298;DHT22;10808;48.010;11.326;2023-05-19T04:36:19;10.40;99.90
21298;DHT22;10808;48.010;11.326;2023-05-19T04:38:46;10.40;99.90
21298;DHT22;10808;48.010;11.326;2023-05-19T04:41:13;10.50;99.90
21298;DHT22;10808;48.010;11.326;2023-05-19T04:43:41;10.50;99.90
21298;DHT22;10808;48.010;11.326;2023-05-19T04:46:12;10.50;99.90
21298;DHT22;10808;48.010;11.326;2023-05-19T04:48:38;10.60;99.90
21298;DHT22;10808;48.010;11.326;2023-05-19T04:51:06;10.60;99.90
21298;DHT22;10808;48.010;11.326;2023-05-19T04:53:32;10.60;99.90
21298;DHT22;10808;48.010;11.326;2023-05-19T04:55:58;10.60;99.90
21298;DHT22;10808;48.010;11.326;2023-05-19T04:58:26;10.70;99.90
21298;DHT22;10808;48.010;11.326;2023-05-19T05:00:52;10.70;99.90
21298;DHT22;10808;48.010;11.326;2023-05-19T05:03:22;10.70;99.90
21298;DHT22;10808;48.010;11.326;2023-05-19T05:05:49;10.80;99.90
21298;DHT22;10808;48.010;11.326;2023-05-19T05:08:15;10.70;99.90
21298;DHT22;10808;48.010;11.326;2023-05-19T05:10:51;10.80;99.90
21298;DHT22;10808;48.010;11.326;2023-05-19T05:13:21;10.80;99.90
21298;DHT22;10808;48.010;11.326;2023-05-19T05:15:48;10.80;99.90
21298;DHT22;10808;48.010;11.326;2023-05-19T05:18:14;10.80;99.90
21298;DHT22;10808;48.010;11.326;2023-05-19T05:20:42;10.90;99.90
21298;DHT22;10808;48.010;11.326;2023-05-19T05:23:09;10.90;99.90
21298;DHT22;10808;48.010;11.326;2023-05-19T05:25:43;11.00;99.90
21298;DHT22;10808;48.010;11.326;2023-05-19T05:28:09;11.00;99.90
21298;DHT22;10808;48.010;11.326;2023-05-19T05:30:35;11.10;99.90
21298;DHT22;10808;48.010;11.326;2023-05-19T05:33:02;11.10;99.90
21298;DHT22;10808;48.010;11.326;2023-05-19T05:35:28;11.10;99.90
21298;DHT22;10808;48.010;11.326;2023-05-19T05:37:54;11.20;99.90
21298;DHT22;10808;48.010;11.326;2023-05-19T05:40:21;11.10;99.90
21298;DHT22;10808;48.010;11.326;2023-05-19T05:42:47;11.20;99.90
21298;DHT22;10808;48.010;11.326;2023-05-19T05:45:13;11.20;99.90
21298;DHT22;10808;48.010;11.326;2023-05-19T05:47:39;11.20;99.90
21298;DHT22;10808;48.010;11.326;2023-05-19T05:50:08;11.30;99.90
21298;DHT22;10808;48.010;11.326;2023-05-19T05:52:35;11.40;99.90
21298;DHT22;10808;48.010;11.326;2023-05-19T05:55:03;11.40;99.90
21298;DHT22;10808;48.010;11.326;2023-05-19T05:57:29;11.50;99.90
21298;DHT22;10808;48.010;11.326;2023-05-19T05:59:56;11.60;99.90
21298;DHT22;10808;48.010;11.326;2023-05-19T06:02:22;11.60;99.90
21298;DHT22;10808;48.010;11.326;2023-05-19T06:04:48;11.70;99.90
21298;DHT22;10808;48.010;11.326;2023-05-19T06:07:14;11.70;99.90
21298;DHT22;10808;48.010;11.326;2023-05-19T06:09:40;11.70;99.90
21298;DHT22;10808;48.010;11.326;2023-05-19T06:12:06;11.80;99.90
21298;DHT22;10808;48.010;11.326;2023-05-19T06:14:32;11.90;99.90
21298;DHT22;10808;48.010;11.326;2023-05-19T06:16:58;12.00;99.90
21298;DHT22;10808;48.010;11.326;2023-05-19T06:19:24;12.00;99.90
21298;DHT22;10808;48.010;11.326;2023-05-19T06:21:51;12.00;99.90
21298;DHT22;10808;48.010;11.326;2023-05-19T06:24:17;12.10;99.90
21298;DHT22;10808;48.010;11.326;2023-05-19T06:26:43;12.20;99.90
21298;DHT22;10808;48.010;11.326;2023-05-19T06:29:09;12.20;99.90
21298;DHT22;10808;48.010;11.326;2023-05-19T06:31:35;12.20;99.90
21298;DHT22;10808;48.010;11.326;2023-05-19T06:34:01;12.20;99.90
21298;DHT22;10808;48.010;11.326;2023-05-19T06:36:27;12.30;99.90
21298;DHT22;10808;48.010;11.326;2023-05-19T06:38:53;12.30;99.90
21298;DHT22;10808;48.010;11.326;2023-05-19T06:41:19;12.40;99.90
21298;DHT22;10808;48.010;11.326;2023-05-19T06:43:49;12.50;99.90
21298;DHT22;10808;48.010;11.326;2023-05-19T06:46:15;12.50;99.90
21298;DHT22;10808;48.010;11.326;2023-05-19T06:48:42;12.60;99.90
21298;DHT22;10808;48.010;11.326;2023-05-19T06:51:08;12.70;99.90
21298;DHT22;10808;48.010;11.326;2023-05-19T06:53:35;12.90;99.90
21298;DHT22;10808;48.010;11.326;2023-05-19T06:56:01;13.10;99.90
21298;DHT22;10808;48.010;11.326;2023-05-19T06:58:27;13.30;99.90
21298;DHT22;10808;48.010;11.326;2023-05-19T07:00:53;13.50;99.90
21298;DHT22;10808;48.010;11.326;2023-05-19T07:03:19;13.70;99.90
21298;DHT22;10808;48.010;11.326;2023-05-19T07:05:45;14.00;99.90
21298;DHT22;10808;48.010;11.326;2023-05-19T07:08:12;14.20;99.90
21298;DHT22;10808;48.010;11.326;2023-05-19T07:10:38;14.30;99.90
21298;DHT22;10808;48.010;11.326;2023-05-19T07:13:04;14.50;99.90
21298;DHT22;10808;48.010;11.326;2023-05-19T07:15:30;14.60;99.90
21298;DHT22;10808;48.010;11.326;2023-05-19T07:17:57;14.70;99.90
21298;DHT22;10808;48.010;11.326;2023-05-19T07:20:23;15.00;99.90
21298;DHT22;10808;48.010;11.326;2023-05-19T07:22:49;15.40;99.90
21298;DHT22;10808;48.010;11.326;2023-05-19T07:25:15;15.50;99.90
21298;DHT22;10808;48.010;11.326;2023-05-19T07:27:41;15.70;99.90
21298;DHT22;10808;48.010;11.326;2023-05-19T07:30:07;15.80;99.90
21298;DHT22;10808;48.010;11.326;2023-05-19T07:32:34;16.00;99.90
21298;DHT22;10808;48.010;11.326;2023-05-19T07:35:00;16.10;99.90
21298;DHT22;10808;48.010;11.326;2023-05-19T07:37:26;16.20;99.90
21298;DHT22;10808;48.010;11.326;2023-05-19T07:39:52;16.40;99.90
21298;DHT22;10808;48.010;11.326;2023-05-19T07:42:18;16.60;99.90
21298;DHT22;10808;48.010;11.326;2023-05-19T07:44:44;16.80;99.90
21298;DHT22;10808;48.010;11.326;2023-05-19T07:47:10;17.20;99.90
21298;DHT22;10808;48.010;11.326;2023-05-19T07:49:36;17.60;99.90
21298;DHT22;10808;48.010;11.326;2023-05-19T07:52:02;17.80;99.90
21298;DHT22;10808;48.010;11.326;2023-05-19T07:54:28;18.00;99.80
21298;DHT22;10808;48.010;11.326;2023-05-19T07:56:54;18.10;99.80
21298;DHT22;10808;48.010;11.326;2023-05-19T07:59:20;18.30;99.40
21298;DHT22;10808;48.010;11.326;2023-05-19T08:01:46;18.60;99.10
21298;DHT22;10808;48.010;11.326;2023-05-19T08:04:12;18.90;99.20
21298;DHT22;10808;48.010;11.326;2023-05-19T08:06:38;19.10;98.70
21298;DHT22;10808;48.010;11.326;2023-05-19T08:09:07;19.20;98.20
21298;DHT22;10808;48.010;11.326;2023-05-19T08:11:33;19.30;97.90
21298;DHT22;10808;48.010;11.326;2023-05-19T08:13:59;19.50;97.60
21298;DHT22;10808;48.010;11.326;2023-05-19T08:16:25;19.60;98.20
21298;DHT22;10808;48.010;11.326;2023-05-19T08:18:51;19.70;97.30
21298;DHT22;10808;48.010;11.326;2023-05-19T08:21:17;19.80;96.90
21298;DHT22;10808;48.010;11.326;2023-05-19T08:23:43;19.90;97.20
21298;DHT22;10808;48.010;11.326;2023-05-19T08:26:09;19.80;96.30
21298;DHT22;10808;48.010;11.326;2023-05-19T08:28:35;19.90;97.70
21298;DHT22;10808;48.010;11.326;2023-05-19T08:31:01;20.20;97.20
21298;DHT22;10808;48.010;11.326;2023-05-19T08:33:27;20.40;97.00
21298;DHT22;10808;48.010;11.326;2023-05-19T08:35:55;20.50;96.40
21298;DHT22;10808;48.010;11.326;2023-05-19T08:38:24;20.30;95.50
21298;DHT22;10808;48.010;11.326;2023-05-19T08:40:50;20.30;95.90
21298;DHT22;10808;48.010;11.326;2023-05-19T08:43:16;20.30;96.20
21298;DHT22;10808;48.010;11.326;2023-05-19T08:45:44;20.50;96.50
21298;DHT22;10808;48.010;11.326;2023-05-19T08:48:13;20.50;95.20
21298;DHT22;10808;48.010;11.326;2023-05-19T08:50:51;20.50;96.10
21298;DHT22;10808;48.010;11.326;2023-05-19T08:53:20;20.60;96.30
21298;DHT22;10808;48.010;11.326;2023-05-19T08:55:57;20.90;95.60
21298;DHT22;10808;48.010;11.326;2023-05-19T08:58:26;21.10;95.60
21298;DHT22;10808;48.010;11.326;2023-05-19T09:00:53;21.10;94.90
21298;DHT22;10808;48.010;11.326;2023-05-19T09:03:20;21.10;94.50
21298;DHT22;10808;48.010;11.326;2023-05-19T09:05:47;21.40;95.20
21298;DHT22;10808;48.010;11.326;2023-05-19T09:08:14;21.80;94.90
21298;DHT22;10808;48.010;11.326;2023-05-19T09:10:40;21.80;93.70
21298;DHT22;10808;48.010;11.326;2023-05-19T09:13:06;21.80;94.20
21298;DHT22;10808;48.010;11.326;2023-05-19T09:15:33;21.70;94.00
21298;DHT22;10808;48.010;11.326;2023-05-19T09:18:12;21.80;94.20
21298;DHT22;10808;48.010;11.326;2023-05-19T09:20:40;21.60;93.00
21298;DHT22;10808;48.010;11.326;2023-05-19T09:23:06;21.40;93.60
21298;DHT22;10808;48.010;11.326;2023-05-19T09:25:34;21.40;93.40
21298;DHT22;10808;48.010;11.326;2023-05-19T09:28:00;21.30;94.30
21298;DHT22;10808;48.010;11.326;2023-05-19T09:30:26;21.40;93.90
21298;DHT22;10808;48.010;11.326;2023-05-19T09:32:52;21.50;94.30
21298;DHT22;10808;48.010;11.326;2023-05-19T09:35:18;21.60;94.20
21298;DHT22;10808;48.010;11.326;2023-05-19T09:37:46;21.50;93.20
21298;DHT22;10808;48.010;11.326;2023-05-19T09:40:14;21.40;93.20
21298;DHT22;10808;48.010;11.326;2023-05-19T09:42:41;21.20;93.00
21298;DHT22;10808;48.010;11.326;2023-05-19T09:45:07;20.90;92.70
21298;DHT22;10808;48.010;11.326;2023-05-19T09:47:35;20.60;93.80
21298;DHT22;10808;48.010;11.326;2023-05-19T09:50:07;20.60;94.30
21298;DHT22;10808;48.010;11.326;2023-05-19T09:52:38;20.50;94.60
21298;DHT22;10808;48.010;11.326;2023-05-19T09:55:04;20.20;93.60
21298;DHT22;10808;48.010;11.326;2023-05-19T09:57:34;20.00;94.10
21298;DHT22;10808;48.010;11.326;2023-05-19T10:00:06;19.90;95.30
21298;DHT22;10808;48.010;11.326;2023-05-19T10:02:45;19.70;94.80
21298;DHT22;10808;48.010;11.326;2023-05-19T10:05:14;19.70;95.70
21298;DHT22;10808;48.010;11.326;2023-05-19T10:07:54;19.80;95.50
21298;DHT22;10808;48.010;11.326;2023-05-19T10:10:21;19.80;95.70
21298;DHT22;10808;48.010;11.326;2023-05-19T10:12:48;19.80;95.10
21298;DHT22;10808;48.010;11.326;2023-05-19T10:15:16;19.60;95.10
21298;DHT22;10808;48.010;11.326;2023-05-19T10:17:43;19.50;95.30
21298;DHT22;10808;48.010;11.326;2023-05-19T10:20:14;19.40;95.50
21298;DHT22;10808;48.010;11.326;2023-05-19T10:22:44;19.30;95.10
21298;DHT22;10808;48.010;11.326;2023-05-19T10:25:11;19.10;95.70
21298;DHT22;10808;48.010;11.326;2023-05-19T10:30:19;18.90;95.30
21298;DHT22;10808;48.010;11.326;2023-05-19T10:32:46;18.60;95.60
21298;DHT22;10808;48.010;11.326;2023-05-19T10:35:51;18.40;95.90
21298;DHT22;10808;48.010;11.326;2023-05-19T10:41:22;18.50;96.00
21298;DHT22;10808;48.010;11.326;2023-05-19T10:44:01;18.50;96.10
21298;DHT22;10808;48.010;11.326;2023-05-19T10:46:29;18.40;95.70
21298;DHT22;10808;48.010;11.326;2023-05-19T10:48:55;18.20;96.00
21298;DHT22;10808;48.010;11.326;2023-05-19T10:51:30;18.30;96.90
21298;DHT22;10808;48.010;11.326;2023-05-19T10:53:57;18.40;96.70
21298;DHT22;10808;48.010;11.326;2023-05-19T10:56:31;18.40;96.10
21298;DHT22;10808;48.010;11.326;2023-05-19T10:59:01;18.20;95.40
21298;DHT22;10808;48.010;11.326;2023-05-19T11:01:32;18.10;97.10
21298;DHT22;10808;48.010;11.326;2023-05-19T11:04:08;18.10;96.10
21298;DHT22;10808;48.010;11.326;2023-05-19T11:06:40;18.00;96.50
21298;DHT22;10808;48.010;11.326;2023-05-19T11:09:19;18.10;96.80
21298;DHT22;10808;48.010;11.326;2023-05-19T11:11:49;18.10;96.70
21298;DHT22;10808;48.010;11.326;2023-05-19T11:14:25;18.20;96.30
21298;DHT22;10808;48.010;11.326;2023-05-19T11:16:55;18.20;96.90
21298;DHT22;10808;48.010;11.326;2023-05-19T11:21:52;18.40;97.30
21298;DHT22;10808;48.010;11.326;2023-05-19T11:24:35;18.30;96.40
21298;DHT22;10808;48.010;11.326;2023-05-19T11:27:23;18.30;96.80
21298;DHT22;10808;48.010;11.326;2023-05-19T11:29:50;18.20;97.00
21298;DHT22;10808;48.010;11.326;2023-05-19T11:32:17;18.30;97.00
21298;DHT22;10808;48.010;11.326;2023-05-19T11:34:44;18.20;97.10
21298;DHT22;10808;48.010;11.326;2023-05-19T11:37:13;18.20;96.80
21298;DHT22;10808;48.010;11.326;2023-05-19T11:39:39;18.20;97.10
21298;DHT22;10808;48.010;11.326;2023-05-19T11:42:07;18.20;97.40
21298;DHT22;10808;48.010;11.326;2023-05-19T11:44:33;18.10;97.00
21298;DHT22;10808;48.010;11.326;2023-05-19T11:46:59;17.90;96.60
21298;DHT22;10808;48.010;11.326;2023-05-19T11:49:27;17.90;97.30
21298;DHT22;10808;48.010;11.326;2023-05-19T11:51:54;17.90;97.20
21298;DHT22;10808;48.010;11.326;2023-05-19T11:54:20;18.00;97.70
21298;DHT22;10808;48.010;11.326;2023-05-19T11:56:46;17.90;96.60
21298;DHT22;10808;48.010;11.326;2023-05-19T11:59:13;17.80;96.60
21298;DHT22;10808;48.010;11.326;2023-05-19T12:01:39;17.80;97.40
21298;DHT22;10808;48.010;11.326;2023-05-19T12:04:08;17.80;97.70
21298;DHT22;10808;48.010;11.326;2023-05-19T12:06:35;17.80;97.70
21298;DHT22;10808;48.010;11.326;2023-05-19T12:09:04;17.90;97.40
21298;DHT22;10808;48.010;11.326;2023-05-19T12:11:30;17.90;97.20
21298;DHT22;10808;48.010;11.326;2023-05-19T12:14:00;17.90;97.10
21298;DHT22;10808;48.010;11.326;2023-05-19T12:16:34;17.90;97.00
21298;DHT22;10808;48.010;11.326;2023-05-19T12:19:04;17.70;96.90
21298;DHT22;10808;48.010;11.326;2023-05-19T12:21:30;17.70;97.50
21298;DHT22;10808;48.010;11.326;2023-05-19T12:23:58;17.50;97.10
21298;DHT22;10808;48.010;11.326;2023-05-19T12:26:24;17.40;97.50
21298;DHT22;10808;48.010;11.326;2023-05-19T12:28:50;17.30;97.40
21298;DHT22;10808;48.010;11.326;2023-05-19T12:31:18;17.20;97.50
21298;DHT22;10808;48.010;11.326;2023-05-19T12:33:47;17.20;98.10
21298;DHT22;10808;48.010;11.326;2023-05-19T12:36:17;17.20;98.00
21298;DHT22;10808;48.010;11.326;2023-05-19T12:38:44;17.30;98.00
21298;DHT22;10808;48.010;11.326;2023-05-19T12:41:11;17.30;98.10
21298;DHT22;10808;48.010;11.326;2023-05-19T12:43:37;17.40;98.10
21298;DHT22;10808;48.010;11.326;2023-05-19T12:46:13;17.40;98.40
21298;DHT22;10808;48.010;11.326;2023-05-19T12:48:45;17.40;98.20
21298;DHT22;10808;48.010;11.326;2023-05-19T12:51:18;17.40;97.90
21298;DHT22;10808;48.010;11.326;2023-05-19T12:53:44;17.40;97.50
21298;DHT22;10808;48.010;11.326;2023-05-19T12:56:12;17.30;97.90
21298;DHT22;10808;48.010;11.326;2023-05-19T12:58:40;17.30;98.20
21298;DHT22;10808;48.010;11.326;2023-05-19T13:01:06;17.30;98.40
21298;DHT22;10808;48.010;11.326;2023-05-19T13:03:38;17.40;98.60
21298;DHT22;10808;48.010;11.326;2023-05-19T13:06:06;17.50;98.10
21298;DHT22;10808;48.010;11.326;2023-05-19T13:08:32;17.50;97.90
21298;DHT22;10808;48.010;11.326;2023-05-19T13:10:58;17.50;98.50
21298;DHT22;10808;48.010;11.326;2023-05-19T13:13:24;17.50;98.50
21298;DHT22;10808;48.010;11.326;2023-05-19T13:15:50;17.50;97.70
21298;DHT22;10808;48.010;11.326;2023-05-19T13:18:16;17.40;97.70
21298;DHT22;10808;48.010;11.326;2023-05-19T13:20:43;17.40;97.90
21298;DHT22;10808;48.010;11.326;2023-05-19T13:23:11;17.40;98.20
21298;DHT22;10808;48.010;11.326;2023-05-19T13:25:37;17.40;97.70
21298;DHT22;10808;48.010;11.326;2023-05-19T13:28:03;17.40;98.10
21298;DHT22;10808;48.010;11.326;2023-05-19T13:30:31;17.40;97.90
21298;DHT22;10808;48.010;11.326;2023-05-19T13:32:57;17.40;97.70
21298;DHT22;10808;48.010;11.326;2023-05-19T13:35:23;17.30;98.20
21298;DHT22;10808;48.010;11.326;2023-05-19T13:37:49;17.30;98.50
21298;DHT22;10808;48.010;11.326;2023-05-19T13:40:16;17.40;98.50
21298;DHT22;10808;48.010;11.326;2023-05-19T13:42:42;17.40;98.20
21298;DHT22;10808;48.010;11.326;2023-05-19T13:45:09;17.40;98.10
21298;DHT22;10808;48.010;11.326;2023-05-19T13:47:35;17.30;97.50
21298;DHT22;10808;48.010;11.326;2023-05-19T13:50:02;17.20;98.20
21298;DHT22;10808;48.010;11.326;2023-05-19T13:52:29;17.20;98.60
21298;DHT22;10808;48.010;11.326;2023-05-19T13:54:55;17.30;98.60
21298;DHT22;10808;48.010;11.326;2023-05-19T13:57:24;17.30;98.60
21298;DHT22;10808;48.010;11.326;2023-05-19T13:59:52;17.40;98.70
21298;DHT22;10808;48.010;11.326;2023-05-19T14:02:18;17.40;98.60
21298;DHT22;10808;48.010;11.326;2023-05-19T14:04:45;17.60;98.70
21298;DHT22;10808;48.010;11.326;2023-05-19T14:07:12;17.70;98.40
21298;DHT22;10808;48.010;11.326;2023-05-19T14:09:38;17.70;98.40
21298;DHT22;10808;48.010;11.326;2023-05-19T14:12:04;17.70;98.00
21298;DHT22;10808;48.010;11.326;2023-05-19T14:14:31;17.70;98.20
21298;DHT22;10808;48.010;11.326;2023-05-19T14:16:57;17.80;98.40
21298;DHT22;10808;48.010;11.326;2023-05-19T14:19:23;17.80;97.80
21298;DHT22;10808;48.010;11.326;2023-05-19T14:21:55;17.90;98.10
21298;DHT22;10808;48.010;11.326;2023-05-19T14:24:21;17.90;98.00
21298;DHT22;10808;48.010;11.326;2023-05-19T14:26:47;18.00;98.60
21298;DHT22;10808;48.010;11.326;2023-05-19T14:29:14;18.20;98.20
21298;DHT22;10808;48.010;11.326;2023-05-19T14:31:40;18.30;97.90
21298;DHT22;10808;48.010;11.326;2023-05-19T14:34:06;18.20;97.20
21298;DHT22;10808;48.010;11.326;2023-05-19T14:36:32;18.20;97.30
21298;DHT22;10808;48.010;11.326;2023-05-19T14:39:00;18.20;97.80
21298;DHT22;10808;48.010;11.326;2023-05-19T14:41:26;18.20;97.90
21298;DHT22;10808;48.010;11.326;2023-05-19T14:43:52;18.30;97.90
21298;DHT22;10808;48.010;11.326;2023-05-19T14:46:18;18.20;97.50
21298;DHT22;10808;48.010;11.326;2023-05-19T14:48:44;18.20;97.40
21298;DHT22;10808;48.010;11.326;2023-05-19T14:51:10;18.00;97.50
21298;DHT22;10808;48.010;11.326;2023-05-19T14:53:36;18.00;97.80
21298;DHT22;10808;48.010;11.326;2023-05-19T14:56:03;18.00;97.60
21298;DHT22;10808;48.010;11.326;2023-05-19T14:58:29;17.90;97.70
21298;DHT22;10808;48.010;11.326;2023-05-19T15:00:58;17.80;98.10
21298;DHT22;10808;48.010;11.326;2023-05-19T15:03:24;17.70;98.00
21298;DHT22;10808;48.010;11.326;2023-05-19T15:05:50;17.70;98.10
21298;DHT22;10808;48.010;11.326;2023-05-19T15:08:16;17.70;98.00
21298;DHT22;10808;48.010;11.326;2023-05-19T15:10:42;17.70;98.10
21298;DHT22;10808;48.010;11.326;2023-05-19T15:13:08;17.60;98.20
21298;DHT22;10808;48.010;11.326;2023-05-19T15:15:34;17.60;98.10
21298;DHT22;10808;48.010;11.326;2023-05-19T15:18:00;17.60;98.40
21298;DHT22;10808;48.010;11.326;2023-05-19T15:20:26;17.70;98.40
21298;DHT22;10808;48.010;11.326;2023-05-19T15:22:52;17.70;98.20
21298;DHT22;10808;48.010;11.326;2023-05-19T15:25:18;17.60;98.00
21298;DHT22;10808;48.010;11.326;2023-05-19T15:27:44;17.60;98.30
21298;DHT22;10808;48.010;11.326;2023-05-19T15:30:10;17.70;98.60
21298;DHT22;10808;48.010;11.326;2023-05-19T15:32:36;17.60;98.30
21298;DHT22;10808;48.010;11.326;2023-05-19T15:35:02;17.60;98.00
21298;DHT22;10808;48.010;11.326;2023-05-19T15:37:29;17.40;98.30
21298;DHT22;10808;48.010;11.326;2023-05-19T15:39:55;17.30;98.60